createdAt,value
2023-03-01T00:01:09.794Z,33
2023-03-01T00:07:15.182Z,33
2023-03-01T00:13:20.936Z,33
2023-03-01T00:19:26.908Z,33
2023-03-01T00:25:32.267Z,33
2023-03-01T00:31:37.654Z,32.9
2023-03-01T00:37:43.431Z,33
2023-03-01T00:43:49.428Z,33
2023-03-01T00:49:55.399Z,33
2023-03-01T00:56:00.960Z,33
2023-03-01T01:02:06.941Z,33
2023-03-01T01:08:12.504Z,33
2023-03-01T01:14:18.506Z,32.9
2023-03-01T01:20:24.501Z,32.9
2023-03-01T01:26:30.728Z,32.9
2023-03-01T01:32:37.680Z,32.9
2023-03-01T01:38:43.520Z,32.9
2023-03-01T01:44:49.435Z,33
2023-03-01T01:50:55.622Z,32.9
2023-03-01T01:57:01.188Z,32.9
2023-03-01T02:03:07.060Z,32.9
2023-03-01T02:09:13.538Z,32.9
2023-03-01T02:15:19.321Z,32.9
2023-03-01T02:21:24.678Z,32.9
2023-03-01T02:27:30.472Z,32.9
2023-03-01T02:33:35.627Z,32.9
2023-03-01T02:39:40.795Z,32.9
2023-03-01T02:45:46.165Z,32.9
2023-03-01T02:51:51.310Z,32.9
2023-03-01T02:57:56.487Z,32.9
2023-03-01T03:04:02.779Z,32.9
2023-03-01T03:10:08.729Z,32.9
2023-03-01T03:16:14.175Z,32.9
2023-03-01T03:22:19.879Z,32.9
2023-03-01T03:28:25.574Z,32.9
2023-03-01T03:34:31.354Z,32.9
2023-03-01T03:40:37.324Z,32.9
2023-03-01T03:46:42.898Z,32.8
2023-03-01T03:52:48.266Z,32.9
2023-03-01T03:58:53.639Z,32.9
2023-03-01T04:04:58.796Z,32.8
2023-03-01T04:11:04.165Z,32.8
2023-03-01T04:17:09.528Z,32.8
2023-03-01T04:23:15.316Z,32.8
2023-03-01T04:29:20.464Z,32.8
2023-03-01T04:35:26.442Z,32.8
2023-03-01T04:41:32.223Z,32.8
2023-03-01T04:47:37.422Z,32.8
2023-03-01T04:53:43.221Z,32.9
2023-03-01T04:59:48.792Z,32.8
2023-03-01T05:05:54.161Z,32.7
2023-03-01T05:11:59.552Z,32.5
2023-03-01T05:18:05.140Z,32.5
2023-03-01T05:24:10.689Z,32.3
2023-03-01T05:30:16.054Z,32.3
2023-03-01T05:36:21.776Z,32.3
2023-03-01T05:42:27.544Z,32.3
2023-03-01T05:48:33.107Z,32.3
2023-03-01T05:54:38.269Z,32.3
2023-03-01T06:00:43.658Z,32.3
2023-03-01T06:06:49.002Z,32.4
2023-03-01T06:12:54.590Z,32.4
2023-03-01T06:18:59.945Z,32.4
2023-03-01T06:25:05.523Z,32.4
2023-03-01T06:31:10.926Z,32.5
2023-03-01T06:37:16.697Z,32.4
2023-03-01T06:43:22.646Z,32.3
2023-03-01T06:49:28.858Z,32.2
2023-03-01T06:55:34.816Z,32.2
2023-03-01T07:01:40.622Z,32.3
2023-03-01T07:07:46.152Z,32.4
2023-03-01T07:13:52.350Z,32.3
2023-03-01T07:19:57.598Z,32.4
2023-03-01T07:26:03.158Z,32.3
2023-03-01T07:32:09.449Z,32.2
2023-03-01T07:38:15.336Z,32.2
2023-03-01T07:44:21.505Z,32.3
2023-03-01T07:50:27.104Z,32.2
2023-03-01T07:56:33.764Z,32.3
2023-03-01T08:02:39.581Z,32.2
2023-03-01T08:08:45.398Z,32.2
2023-03-01T08:14:51.385Z,32.2
2023-03-01T08:20:56.586Z,32.2
2023-03-01T08:27:02.158Z,32.2
2023-03-01T08:33:07.559Z,32
2023-03-01T08:39:13.512Z,32
2023-03-01T08:45:19.191Z,32
2023-03-01T08:51:25.190Z,32
2023-03-01T08:57:30.556Z,31.9
2023-03-01T09:03:36.540Z,31.9
2023-03-01T09:09:42.732Z,31.9
2023-03-01T09:15:48.909Z,32
2023-03-01T09:21:54.979Z,32
2023-03-01T09:28:01.069Z,32
2023-03-01T09:34:07.070Z,32
2023-03-01T09:40:12.309Z,32
2023-03-01T09:46:17.808Z,32
2023-03-01T09:52:23.865Z,32
2023-03-01T09:58:29.711Z,32
2023-03-01T10:04:37.498Z,32
2023-03-01T10:10:43.989Z,32
2023-03-01T10:16:49.635Z,32
2023-03-01T10:22:55.779Z,32
2023-03-01T10:29:01.581Z,32
2023-03-01T10:35:07.473Z,32
2023-03-01T10:41:13.660Z,32
2023-03-01T10:47:19.862Z,32
2023-03-01T10:53:25.825Z,32
2023-03-01T10:59:31.819Z,32
2023-03-01T11:05:37.302Z,32.1
2023-03-01T11:11:42.584Z,32.1
2023-03-01T11:18:05.888Z,32.1
2023-03-01T11:24:15.259Z,32.1
2023-03-01T11:30:21.430Z,32.2
2023-03-01T11:36:27.210Z,32.2
2023-03-01T11:42:33.372Z,32.2
2023-03-01T11:48:52.217Z,32.3
2023-03-01T11:54:57.821Z,32.2
2023-03-01T12:01:03.579Z,32.2
2023-03-01T12:07:09.752Z,32.3
2023-03-01T12:13:15.540Z,32.2
2023-03-01T12:19:21.526Z,32.2
2023-03-01T12:25:27.399Z,32.2
2023-03-01T12:31:34.486Z,32.2
2023-03-01T12:37:42.014Z,32.2
2023-03-01T12:43:48.930Z,32.2
2023-03-01T12:49:54.716Z,32.3
2023-03-01T12:56:00.366Z,32.2
2023-03-01T13:02:06.247Z,32.3
2023-03-01T13:08:12.162Z,32.3
2023-03-01T13:14:18.641Z,32.4
2023-03-01T13:20:24.607Z,32.4
2023-03-01T13:26:30.849Z,32.4
2023-03-01T13:32:47.402Z,32.5
2023-03-01T13:38:53.604Z,32.5
2023-03-01T13:44:59.165Z,32.6
2023-03-01T13:51:04.960Z,32.6
2023-03-01T13:57:10.759Z,32.6
2023-03-01T14:03:16.926Z,32.6
2023-03-01T14:09:22.915Z,32.7
2023-03-01T14:15:28.540Z,32.6
2023-03-01T14:21:34.462Z,32.7
2023-03-01T14:27:40.241Z,32.8
2023-03-01T14:33:46.030Z,32.8
2023-03-01T14:39:51.810Z,32.7
2023-03-01T14:45:58.229Z,32.7
2023-03-01T14:52:03.823Z,32.7
2023-03-01T14:58:09.736Z,32.7
2023-03-01T15:04:15.735Z,32.8
2023-03-01T15:10:21.314Z,32.8
2023-03-01T15:16:27.508Z,32.9
2023-03-01T15:22:33.681Z,32.9
2023-03-01T15:28:39.634Z,32.9
2023-03-01T15:34:45.097Z,33
2023-03-01T15:40:50.591Z,33
2023-03-01T15:46:56.678Z,33
2023-03-01T15:53:02.546Z,32.9
2023-03-01T15:59:08.343Z,33
2023-03-01T16:05:13.983Z,33
2023-03-01T16:11:20.083Z,33
2023-03-01T16:17:25.445Z,33.1
2023-03-01T16:23:31.652Z,33.1
2023-03-01T16:29:38.054Z,33.1
2023-03-01T16:35:44.221Z,33.2
2023-03-01T16:41:49.585Z,33.3
2023-03-01T16:47:58.900Z,33.2
2023-03-01T16:54:05.043Z,33.2
2023-03-01T17:00:11.208Z,33.2
2023-03-01T17:06:17.195Z,33.2
2023-03-01T17:12:23.395Z,33.2
2023-03-01T17:18:29.593Z,33.2
2023-03-01T17:24:35.964Z,33.3
2023-03-01T17:30:42.762Z,33.3
2023-03-01T17:36:48.108Z,33.3
2023-03-01T17:42:54.508Z,33.2
2023-03-01T17:49:00.302Z,33.3
2023-03-01T17:55:06.078Z,33.2
2023-03-01T18:01:12.137Z,33.2
2023-03-01T18:07:18.253Z,33.2
2023-03-01T18:13:23.457Z,33.2
2023-03-01T18:19:29.224Z,33.2
2023-03-01T18:25:35.163Z,33.2
2023-03-01T18:31:41.147Z,33.3
2023-03-01T18:37:47.314Z,33.4
2023-03-01T18:43:53.100Z,33.4
2023-03-01T18:49:58.662Z,33.4
2023-03-01T18:56:04.233Z,33.4
2023-03-01T19:02:10.856Z,33.4
2023-03-01T19:08:17.024Z,33.4
2023-03-01T19:14:22.490Z,33.4
2023-03-01T19:20:27.956Z,33.4
2023-03-01T19:26:35.227Z,33.4
2023-03-01T19:32:41.392Z,33.4
2023-03-01T19:38:47.778Z,33.4
2023-03-01T19:44:53.522Z,33.4
2023-03-01T19:50:59.511Z,33.4
2023-03-01T19:57:05.911Z,33.3
2023-03-01T20:03:11.229Z,33.2
2023-03-01T20:09:25.036Z,33.3
2023-03-01T20:15:30.893Z,33.2
2023-03-01T20:21:36.784Z,33.2
2023-03-01T20:27:42.582Z,33.2
2023-03-01T20:33:48.336Z,33.2
2023-03-01T20:39:54.316Z,33.4
2023-03-01T20:46:00.510Z,33.3
2023-03-01T20:52:06.189Z,33.3
2023-03-01T20:58:12.263Z,33.3
2023-03-01T21:04:18.304Z,33.3
2023-03-01T21:10:24.553Z,33.4
2023-03-01T21:16:31.227Z,33.3
2023-03-01T21:22:37.141Z,33.4
2023-03-01T21:28:43.407Z,33.3
2023-03-01T21:34:49.590Z,33.3
2023-03-01T21:40:55.557Z,33.3
2023-03-01T21:47:01.829Z,33.3
2023-03-01T21:53:07.345Z,33.3
2023-03-01T21:59:13.315Z,33.3
2023-03-01T22:05:19.313Z,33.4
2023-03-01T22:11:25.275Z,33.4
2023-03-01T22:17:31.232Z,33.4
2023-03-01T22:23:36.911Z,33.4
2023-03-01T22:29:42.860Z,33.4
2023-03-01T22:35:49.054Z,33.5
2023-03-01T22:41:54.840Z,33.5
2023-03-01T22:48:00.977Z,33.5
2023-03-01T22:54:06.806Z,33.5
2023-03-01T23:00:13.259Z,33.5
2023-03-01T23:06:18.916Z,33.6
2023-03-01T23:12:24.686Z,33.6
2023-03-01T23:18:30.449Z,33.6
2023-03-01T23:24:36.520Z,33.6
2023-03-01T23:30:42.054Z,33.6
2023-03-01T23:36:47.587Z,33.7
2023-03-01T23:42:53.588Z,33.7
2023-03-01T23:48:58.913Z,33.7
2023-03-01T23:55:05.370Z,33.7
